EIKN/NOC METAR and TAF weather

Enter ICAO airport designator
Station Type Date Time Source
EIKN METAR 2022/01/25 10:00 UTC NOAA

EIKN 251000Z 16002KT 9999 SCT022 BKN220 05/04 Q1031 NOSIG


Station Type Date Time Source
EIKN Decoded METAR 2022/01/25 10:00 UTC NOAA

Connaught, Ireland (EIKN) 53-54-37N 008-49-05W
Jan 25, 2022 - 05:00 AM EST / 2022.01.25 1000 UTC
Wind: from the SSE (160 degrees) at 2 MPH (2 KT):0
Visibility: greater than 7 mile(s):0
Sky conditions: mostly cloudy
Temperature: 41 F (5 C)
Dew Point: 39 F (4 C)
Relative Humidity: 93%
Pressure (altimeter): 30.45 in. Hg (1031 hPa)
ob: EIKN 251000Z 16002KT 9999 SCT022 BKN220 05/04 Q1031 NOSIG
cycle: 10

Station Type Date Time Source
EIKN TAF 2022/01/26 06:10 UTC NOAA

TAF EIKN 260500Z 2606/2706 21008KT 9999 FEW003 BKN014
TEMPO 2606/2609 3000 BR BKN003
BECMG 2609/2611 22018G28KT PROB40
TEMPO 2609/2612 -RADZ BKN007
BECMG 2612/2614 4000 -RADZ BKN007
TEMPO 2616/2624 2000 BKN003
BECMG 2618/2620 25014KT PROB30
TEMPO 2619/2623 0500 FG BKN001
BECMG 2700/2702 29008KT 9999 NSW BKN018

Example: see airport list